sensor_id;sensor_type;location;lat;lon;timestamp;pressure;altitude;pressure_sealevel;temperature;humidity
13312;BME280;34033;48.672;9.376;2023-07-29T00:01:31;98115.97;;;21.51;76.17
13312;BME280;34033;48.672;9.376;2023-07-29T00:03:56;98108.72;;;21.50;76.29
13312;BME280;34033;48.672;9.376;2023-07-29T00:06:21;98112.31;;;21.50;75.95
13312;BME280;34033;48.672;9.376;2023-07-29T00:08:47;98110.28;;;21.51;75.95
13312;BME280;34033;48.672;9.376;2023-07-29T00:11:12;98103.78;;;21.50;75.63
13312;BME280;34033;48.672;9.376;2023-07-29T00:13:37;98106.97;;;21.52;75.56
13312;BME280;34033;48.672;9.376;2023-07-29T00:16:04;98095.25;;;21.50;75.58
13312;BME280;34033;48.672;9.376;2023-07-29T00:18:29;98091.66;;;21.50;75.84
13312;BME280;34033;48.672;9.376;2023-07-29T00:20:54;98090.88;;;21.49;75.75
13312;BME280;34033;48.672;9.376;2023-07-29T00:23:21;98092.91;;;21.49;75.72
13312;BME280;34033;48.672;9.376;2023-07-29T00:25:46;98084.38;;;21.49;75.73
13312;BME280;34033;48.672;9.376;2023-07-29T00:28:12;98085.63;;;21.48;75.67
13312;BME280;34033;48.672;9.376;2023-07-29T00:30:38;98095.91;;;21.45;75.95
13312;BME280;34033;48.672;9.376;2023-07-29T00:33:03;98095.91;;;21.45;76.20
13312;BME280;34033;48.672;9.376;2023-07-29T00:35:28;98094.63;;;21.46;75.73
13312;BME280;34033;48.672;9.376;2023-07-29T00:37:54;98089.41;;;21.45;75.83
13312;BME280;34033;48.672;9.376;2023-07-29T00:40:21;98085.00;;;21.44;75.99
13312;BME280;34033;48.672;9.376;2023-07-29T00:42:46;98084.22;;;21.43;75.84
13312;BME280;34033;48.672;9.376;2023-07-29T00:45:12;98081.38;;;21.43;75.92
13312;BME280;34033;48.672;9.376;2023-07-29T00:47:38;98079.31;;;21.44;75.81
13312;BME280;34033;48.672;9.376;2023-07-29T00:50:03;98082.63;;;21.42;75.76
13312;BME280;34033;48.672;9.376;2023-07-29T00:52:29;98068.75;;;21.44;75.81
13312;BME280;34033;48.672;9.376;2023-07-29T00:54:55;98066.03;;;21.41;75.46
13312;BME280;34033;48.672;9.376;2023-07-29T00:57:20;98072.97;;;21.40;75.81
13312;BME280;34033;48.672;9.376;2023-07-29T00:59:46;98086.91;;;21.38;75.98
13312;BME280;34033;48.672;9.376;2023-07-29T01:02:12;98075.97;;;21.36;75.94
13312;BME280;34033;48.672;9.376;2023-07-29T01:04:38;98077.25;;;21.35;75.65
13312;BME280;34033;48.672;9.376;2023-07-29T01:07:23;98087.81;;;21.35;75.92
13312;BME280;34033;48.672;9.376;2023-07-29T01:09:59;98081.34;;;21.34;75.96
13312;BME280;34033;48.672;9.376;2023-07-29T01:17:55;98077.72;;;21.34;75.88
13312;BME280;34033;48.672;9.376;2023-07-29T01:20:23;98072.50;;;21.32;76.04
13312;BME280;34033;48.672;9.376;2023-07-29T01:22:49;98066.84;;;21.32;75.99
13312;BME280;34033;48.672;9.376;2023-07-29T01:25:15;98060.81;;;21.30;75.91
13312;BME280;34033;48.672;9.376;2023-07-29T01:27:46;98058.94;;;21.27;76.28
13312;BME280;34033;48.672;9.376;2023-07-29T01:30:12;98063.03;;;21.26;76.31
13312;BME280;34033;48.672;9.376;2023-07-29T01:32:54;98063.31;;;21.28;76.35
13312;BME280;34033;48.672;9.376;2023-07-29T01:38:09;98061.59;;;21.31;76.49
13312;BME280;34033;48.672;9.376;2023-07-29T01:40:39;98055.59;;;21.29;76.52
13312;BME280;34033;48.672;9.376;2023-07-29T01:43:05;98056.09;;;21.27;76.56
13312;BME280;34033;48.672;9.376;2023-07-29T01:45:33;98065.53;;;21.24;76.71
13312;BME280;34033;48.672;9.376;2023-07-29T01:48:05;98064.75;;;21.23;76.66
13312;BME280;34033;48.672;9.376;2023-07-29T01:50:31;98072.81;;;21.25;76.78
13312;BME280;34033;48.672;9.376;2023-07-29T01:52:57;98067.91;;;21.26;76.51
13312;BME280;34033;48.672;9.376;2023-07-29T01:55:23;98067.47;;;21.27;76.48
13312;BME280;34033;48.672;9.376;2023-07-29T01:57:48;98071.09;;;21.28;76.47
13312;BME280;34033;48.672;9.376;2023-07-29T02:00:13;98049.91;;;21.29;76.57
13312;BME280;34033;48.672;9.376;2023-07-29T02:02:39;98057.97;;;21.30;76.35
13312;BME280;34033;48.672;9.376;2023-07-29T02:05:04;98042.97;;;21.30;76.48
13312;BME280;34033;48.672;9.376;2023-07-29T02:07:30;98049.91;;;21.29;76.39
13312;BME280;34033;48.672;9.376;2023-07-29T02:09:55;98047.06;;;21.29;76.75
13312;BME280;34033;48.672;9.376;2023-07-29T02:12:20;98045.97;;;21.26;77.08
13312;BME280;34033;48.672;9.376;2023-07-29T02:14:46;98042.34;;;21.26;77.00
13312;BME280;34033;48.672;9.376;2023-07-29T02:17:11;98041.53;;;21.25;77.13
13312;BME280;34033;48.672;9.376;2023-07-29T02:19:36;98039.16;;;21.23;77.11
13312;BME280;34033;48.672;9.376;2023-07-29T02:22:02;98044.53;;;21.21;77.32
13312;BME280;34033;48.672;9.376;2023-07-29T02:24:27;98046.13;;;21.23;77.49
13312;BME280;34033;48.672;9.376;2023-07-29T02:26:53;98039.16;;;21.23;77.29
13312;BME280;34033;48.672;9.376;2023-07-29T02:29:18;98033.00;;;21.25;77.23
13312;BME280;34033;48.672;9.376;2023-07-29T02:31:43;98028.13;;;21.26;77.10
13312;BME280;34033;48.672;9.376;2023-07-29T02:34:09;98024.16;;;21.23;77.41
13312;BME280;34033;48.672;9.376;2023-07-29T02:36:34;98029.84;;;21.23;77.44
13312;BME280;34033;48.672;9.376;2023-07-29T02:39:00;98024.16;;;21.23;77.44
13312;BME280;34033;48.672;9.376;2023-07-29T02:41:25;98030.16;;;21.25;77.59
13312;BME280;34033;48.672;9.376;2023-07-29T02:43:51;98025.44;;;21.22;77.58
13312;BME280;34033;48.672;9.376;2023-07-29T02:46:17;98028.59;;;21.24;77.41
13312;BME280;34033;48.672;9.376;2023-07-29T02:48:43;98034.28;;;21.24;77.40
13312;BME280;34033;48.672;9.376;2023-07-29T02:51:09;98023.69;;;21.25;77.41
13312;BME280;34033;48.672;9.376;2023-07-29T02:53:34;98022.59;;;21.22;77.66
13312;BME280;34033;48.672;9.376;2023-07-29T02:56:02;98027.63;;;21.18;77.75
13312;BME280;34033;48.672;9.376;2023-07-29T02:58:28;98014.69;;;21.17;78.03
13312;BME280;34033;48.672;9.376;2023-07-29T03:00:53;98012.16;;;21.19;77.51
13312;BME280;34033;48.672;9.376;2023-07-29T03:03:18;98006.81;;;21.21;77.62
13312;BME280;34033;48.672;9.376;2023-07-29T03:05:44;98003.97;;;21.21;77.31
13312;BME280;34033;48.672;9.376;2023-07-29T03:08:10;98004.88;;;21.18;77.58
13312;BME280;34033;48.672;9.376;2023-07-29T03:10:35;98011.84;;;21.17;77.72
13312;BME280;34033;48.672;9.376;2023-07-29T03:13:03;98001.59;;;21.19;77.36
13312;BME280;34033;48.672;9.376;2023-07-29T03:15:29;98005.53;;;21.22;77.41
13312;BME280;34033;48.672;9.376;2023-07-29T03:17:54;98005.84;;;21.24;77.25
13312;BME280;34033;48.672;9.376;2023-07-29T03:20:19;98005.53;;;21.22;77.22
13312;BME280;34033;48.672;9.376;2023-07-29T03:22:46;97998.28;;;21.21;77.40
13312;BME280;34033;48.672;9.376;2023-07-29T03:25:11;97992.25;;;21.19;77.45
13312;BME280;34033;48.672;9.376;2023-07-29T03:27:37;97986.28;;;21.17;77.65
13312;BME280;34033;48.672;9.376;2023-07-29T03:30:03;97987.53;;;21.16;77.39
13312;BME280;34033;48.672;9.376;2023-07-29T03:32:29;97974.22;;;21.13;77.88
13312;BME280;34033;48.672;9.376;2023-07-29T03:34:54;97971.75;;;21.15;77.75
13312;BME280;34033;48.672;9.376;2023-07-29T03:37:20;97978.66;;;21.14;77.93
13312;BME280;34033;48.672;9.376;2023-07-29T03:39:46;97978.31;;;21.12;78.15
13312;BME280;34033;48.672;9.376;2023-07-29T03:42:11;97980.69;;;21.13;78.16
13312;BME280;34033;48.672;9.376;2023-07-29T03:44:37;97979.47;;;21.14;78.01
13312;BME280;34033;48.672;9.376;2023-07-29T03:47:05;97988.78;;;21.15;77.94
13312;BME280;34033;48.672;9.376;2023-07-29T03:49:30;97993.69;;;21.14;78.11
13312;BME280;34033;48.672;9.376;2023-07-29T03:51:55;98002.03;;;21.18;77.95
13312;BME280;34033;48.672;9.376;2023-07-29T03:54:21;98003.34;;;21.17;77.88
13312;BME280;34033;48.672;9.376;2023-07-29T03:56:46;97987.84;;;21.18;77.87
13312;BME280;34033;48.672;9.376;2023-07-29T03:59:12;97993.50;;;21.18;77.73
13312;BME280;34033;48.672;9.376;2023-07-29T04:01:37;97994.81;;;21.17;77.88
13312;BME280;34033;48.672;9.376;2023-07-29T04:04:02;97990.38;;;21.16;77.83
13312;BME280;34033;48.672;9.376;2023-07-29T04:06:28;97991.47;;;21.18;77.67
13312;BME280;34033;48.672;9.376;2023-07-29T04:08:53;97993.50;;;21.18;77.77
13312;BME280;34033;48.672;9.376;2023-07-29T04:11:18;97988.78;;;21.15;77.90
13312;BME280;34033;48.672;9.376;2023-07-29T04:13:44;97995.28;;;21.15;78.24
13312;BME280;34033;48.672;9.376;2023-07-29T04:16:09;97992.84;;;21.14;78.12
13312;BME280;34033;48.672;9.376;2023-07-29T04:18:34;97981.50;;;21.14;78.15
13312;BME280;34033;48.672;9.376;2023-07-29T04:21:00;97975.81;;;21.14;78.04
13312;BME280;34033;48.672;9.376;2023-07-29T04:23:25;97986.28;;;21.17;78.39
13312;BME280;34033;48.672;9.376;2023-07-29T04:25:51;97977.41;;;21.15;78.74
13312;BME280;34033;48.672;9.376;2023-07-29T04:28:17;97976.47;;;21.18;78.25
13312;BME280;34033;48.672;9.376;2023-07-29T04:30:42;97976.78;;;21.20;78.06
13312;BME280;34033;48.672;9.376;2023-07-29T04:33:07;97968.59;;;21.22;78.39
13312;BME280;34033;48.672;9.376;2023-07-29T04:35:32;97979.78;;;21.26;78.02
13312;BME280;34033;48.672;9.376;2023-07-29T04:37:58;97986.28;;;21.26;77.78
13312;BME280;34033;48.672;9.376;2023-07-29T04:40:23;97979.00;;;21.25;78.18
13312;BME280;34033;48.672;9.376;2023-07-29T04:42:50;97971.72;;;21.24;78.11
13312;BME280;34033;48.672;9.376;2023-07-29T04:45:16;97971.25;;;21.26;77.93
13312;BME280;34033;48.672;9.376;2023-07-29T04:47:41;97972.06;;;21.26;78.16
13312;BME280;34033;48.672;9.376;2023-07-29T04:50:07;97993.22;;;21.25;77.99
13312;BME280;34033;48.672;9.376;2023-07-29T04:52:32;98005.66;;;21.00;80.09
13312;BME280;34033;48.672;9.376;2023-07-29T04:54:58;98035.44;;;20.47;84.71
13312;BME280;34033;48.672;9.376;2023-07-29T04:57:23;98018.19;;;19.79;91.31
13312;BME280;34033;48.672;9.376;2023-07-29T04:59:48;98010.91;;;20.00;87.57
13312;BME280;34033;48.672;9.376;2023-07-29T05:02:13;98014.16;;;20.20;86.96
13312;BME280;34033;48.672;9.376;2023-07-29T05:04:39;98014.28;;;20.38;85.35
13312;BME280;34033;48.672;9.376;2023-07-29T05:07:04;97999.38;;;20.56;84.06
13312;BME280;34033;48.672;9.376;2023-07-29T05:09:30;97997.53;;;20.71;83.14
13312;BME280;34033;48.672;9.376;2023-07-29T05:11:55;98001.34;;;20.77;82.86
13312;BME280;34033;48.672;9.376;2023-07-29T05:14:20;98004.50;;;20.89;82.15
13312;BME280;34033;48.672;9.376;2023-07-29T05:16:46;98012.41;;;20.94;82.17
13312;BME280;34033;48.672;9.376;2023-07-29T05:19:11;98015.88;;;20.98;82.04
13312;BME280;34033;48.672;9.376;2023-07-29T05:21:37;98014.63;;;20.99;81.99
13312;BME280;34033;48.672;9.376;2023-07-29T05:24:03;98025.84;;;21.02;81.76
13312;BME280;34033;48.672;9.376;2023-07-29T05:26:28;98031.53;;;21.02;82.03
13312;BME280;34033;48.672;9.376;2023-07-29T05:28:54;98036.28;;;21.05;82.08
13312;BME280;34033;48.672;9.376;2023-07-29T05:31:19;98045.09;;;21.07;81.89
13312;BME280;34033;48.672;9.376;2023-07-29T05:33:44;98043.38;;;21.10;81.89
13312;BME280;34033;48.672;9.376;2023-07-29T05:36:10;98037.53;;;21.13;81.53
13312;BME280;34033;48.672;9.376;2023-07-29T05:38:35;98039.50;;;21.16;81.89
13312;BME280;34033;48.672;9.376;2023-07-29T05:41:00;98044.84;;;21.14;82.16
13312;BME280;34033;48.672;9.376;2023-07-29T05:43:26;98035.06;;;21.15;82.07
13312;BME280;34033;48.672;9.376;2023-07-29T05:45:52;98023.22;;;21.17;82.04
13312;BME280;34033;48.672;9.376;2023-07-29T05:48:18;98004.41;;;21.19;81.89
13312;BME280;34033;48.672;9.376;2023-07-29T05:50:43;98009.78;;;21.17;83.66
13312;BME280;34033;48.672;9.376;2023-07-29T05:53:08;98018.88;;;20.94;85.71
13312;BME280;34033;48.672;9.376;2023-07-29T05:55:34;98010.16;;;20.79;88.19
13312;BME280;34033;48.672;9.376;2023-07-29T05:57:59;98019.91;;;20.69;89.84
13312;BME280;34033;48.672;9.376;2023-07-29T06:00:24;98028.03;;;20.89;86.21
13312;BME280;34033;48.672;9.376;2023-07-29T06:02:49;98032.03;;;21.10;84.53
13312;BME280;34033;48.672;9.376;2023-07-29T06:05:15;98012.78;;;21.23;85.07
13312;BME280;34033;48.672;9.376;2023-07-29T06:07:40;98014.22;;;21.18;86.43
13312;BME280;34033;48.672;9.376;2023-07-29T06:10:09;97999.81;;;21.04;88.10
13312;BME280;34033;48.672;9.376;2023-07-29T06:12:37;98001.84;;;21.12;89.59
13312;BME280;34033;48.672;9.376;2023-07-29T06:15:02;98010.56;;;21.18;89.67
13312;BME280;34033;48.672;9.376;2023-07-29T06:17:28;98003.78;;;21.25;88.89
13312;BME280;34033;48.672;9.376;2023-07-29T06:19:53;97991.78;;;21.30;88.28
13312;BME280;34033;48.672;9.376;2023-07-29T06:22:18;98007.13;;;21.41;87.70
13312;BME280;34033;48.672;9.376;2023-07-29T06:24:44;98009.31;;;21.46;86.99
13312;BME280;34033;48.672;9.376;2023-07-29T06:27:09;98007.28;;;21.38;88.21
13312;BME280;34033;48.672;9.376;2023-07-29T06:29:34;98019.75;;;21.31;89.05
13312;BME280;34033;48.672;9.376;2023-07-29T06:32:00;98004.13;;;21.36;87.32
13312;BME280;34033;48.672;9.376;2023-07-29T06:34:25;98004.75;;;21.40;87.72
13312;BME280;34033;48.672;9.376;2023-07-29T06:36:51;97998.59;;;21.41;88.09
13312;BME280;34033;48.672;9.376;2023-07-29T06:39:16;98011.69;;;21.48;88.23
13312;BME280;34033;48.672;9.376;2023-07-29T06:41:41;98006.16;;;21.72;84.22
13312;BME280;34033;48.672;9.376;2023-07-29T06:44:07;98008.66;;;21.97;83.03
13312;BME280;34033;48.672;9.376;2023-07-29T06:46:32;97999.78;;;22.13;82.76
13312;BME280;34033;48.672;9.376;2023-07-29T06:48:57;98007.00;;;22.23;81.76
13312;BME280;34033;48.672;9.376;2023-07-29T06:51:23;97996.88;;;22.22;81.99
13312;BME280;34033;48.672;9.376;2023-07-29T06:53:48;98003.09;;;22.21;82.15
13312;BME280;34033;48.672;9.376;2023-07-29T06:56:13;98011.78;;;22.17;82.21
13312;BME280;34033;48.672;9.376;2023-07-29T06:58:39;98026.66;;;22.12;82.68
13312;BME280;34033;48.672;9.376;2023-07-29T07:01:04;98039.19;;;21.87;83.94
13312;BME280;34033;48.672;9.376;2023-07-29T07:03:29;98049.47;;;21.76;85.00
13312;BME280;34033;48.672;9.376;2023-07-29T07:05:55;98050.41;;;21.63;85.46
13312;BME280;34033;48.672;9.376;2023-07-29T07:08:20;98074.25;;;21.30;90.94
13312;BME280;34033;48.672;9.376;2023-07-29T07:10:47;98075.03;;;20.81;96.42
13312;BME280;34033;48.672;9.376;2023-07-29T07:13:12;98047.59;;;20.47;99.13
13312;BME280;34033;48.672;9.376;2023-07-29T07:15:37;98072.13;;;20.32;100.00
13312;BME280;34033;48.672;9.376;2023-07-29T07:18:03;98117.19;;;20.08;100.00
13312;BME280;34033;48.672;9.376;2023-07-29T07:20:28;98099.25;;;19.89;100.00
13312;BME280;34033;48.672;9.376;2023-07-29T07:22:54;98074.97;;;19.88;100.00
13312;BME280;34033;48.672;9.376;2023-07-29T07:25:19;98065.94;;;20.03;100.00
13312;BME280;34033;48.672;9.376;2023-07-29T07:27:44;98045.84;;;20.19;99.07
13312;BME280;34033;48.672;9.376;2023-07-29T07:30:10;98074.97;;;20.32;97.86
13312;BME280;34033;48.672;9.376;2023-07-29T07:32:35;98074.91;;;20.23;97.00
13312;BME280;34033;48.672;9.376;2023-07-29T07:35:01;98068.72;;;20.46;96.44
13312;BME280;34033;48.672;9.376;2023-07-29T07:37:27;98068.03;;;20.64;94.78
13312;BME280;34033;48.672;9.376;2023-07-29T07:39:52;98049.81;;;20.83;92.50
13312;BME280;34033;48.672;9.376;2023-07-29T07:42:17;98062.16;;;20.98;90.95
13312;BME280;34033;48.672;9.376;2023-07-29T07:44:43;98054.16;;;21.15;89.62
13312;BME280;34033;48.672;9.376;2023-07-29T07:47:08;98035.41;;;21.27;89.19
13312;BME280;34033;48.672;9.376;2023-07-29T07:49:33;98045.97;;;21.26;89.35
13312;BME280;34033;48.672;9.376;2023-07-29T07:51:59;98044.38;;;21.16;91.18
13312;BME280;34033;48.672;9.376;2023-07-29T07:54:24;98047.78;;;21.02;92.54
13312;BME280;34033;48.672;9.376;2023-07-29T07:56:49;98044.94;;;20.93;94.04
13312;BME280;34033;48.672;9.376;2023-07-29T07:59:15;98047.59;;;20.87;95.61
13312;BME280;34033;48.672;9.376;2023-07-29T08:01:40;98047.25;;;20.85;95.33
13312;BME280;34033;48.672;9.376;2023-07-29T08:04:06;98045.22;;;20.86;96.27
13312;BME280;34033;48.672;9.376;2023-07-29T08:06:32;98053.25;;;20.78;98.65
13312;BME280;34033;48.672;9.376;2023-07-29T08:08:58;98059.56;;;20.73;99.11
13312;BME280;34033;48.672;9.376;2023-07-29T08:11:24;98051.50;;;20.71;99.95
13312;BME280;34033;48.672;9.376;2023-07-29T08:13:49;98051.84;;;20.83;100.00
13312;BME280;34033;48.672;9.376;2023-07-29T08:16:14;98052.03;;;20.97;100.00
13312;BME280;34033;48.672;9.376;2023-07-29T08:18:40;98053.16;;;21.09;100.00
13312;BME280;34033;48.672;9.376;2023-07-29T08:21:05;98050.84;;;21.16;99.38
13312;BME280;34033;48.672;9.376;2023-07-29T08:23:34;98051.66;;;21.26;97.57
13312;BME280;34033;48.672;9.376;2023-07-29T08:26:04;98064.63;;;21.27;97.45
13312;BME280;34033;48.672;9.376;2023-07-29T08:28:36;98060.84;;;21.48;97.55
13312;BME280;34033;48.672;9.376;2023-07-29T08:31:01;98058.31;;;21.41;97.13
13312;BME280;34033;48.672;9.376;2023-07-29T08:33:27;98051.69;;;21.44;96.55
13312;BME280;34033;48.672;9.376;2023-07-29T08:35:53;98054.53;;;21.44;96.97
13312;BME280;34033;48.672;9.376;2023-07-29T08:38:19;98060.53;;;21.55;97.00
13312;BME280;34033;48.672;9.376;2023-07-29T08:41:09;98065.59;;;21.60;99.33
13312;BME280;34033;48.672;9.376;2023-07-29T08:43:38;98061.94;;;21.69;98.12
13312;BME280;34033;48.672;9.376;2023-07-29T08:46:04;98067.97;;;21.71;96.39
13312;BME280;34033;48.672;9.376;2023-07-29T08:48:42;98057.53;;;21.77;96.38
13312;BME280;34033;48.672;9.376;2023-07-29T08:51:12;98062.72;;;21.88;95.48
13312;BME280;34033;48.672;9.376;2023-07-29T08:53:38;98068.44;;;21.97;95.05
13312;BME280;34033;48.672;9.376;2023-07-29T08:56:04;98067.47;;;22.00;96.63
13312;BME280;34033;48.672;9.376;2023-07-29T08:58:31;98073.16;;;22.09;95.94
13312;BME280;34033;48.672;9.376;2023-07-29T09:00:56;98068.88;;;22.14;97.05
13312;BME280;34033;48.672;9.376;2023-07-29T09:03:22;98075.06;;;22.21;93.99
13312;BME280;34033;48.672;9.376;2023-07-29T09:05:47;98059.22;;;22.20;94.72
13312;BME280;34033;48.672;9.376;2023-07-29T09:08:13;98058.28;;;22.14;95.12
13312;BME280;34033;48.672;9.376;2023-07-29T09:10:39;98053.84;;;22.13;96.74
13312;BME280;34033;48.672;9.376;2023-07-29T09:13:04;98060.81;;;22.12;94.83
13312;BME280;34033;48.672;9.376;2023-07-29T09:15:32;98056.19;;;22.24;94.69
13312;BME280;34033;48.672;9.376;2023-07-29T09:17:58;98047.28;;;22.40;95.28
13312;BME280;34033;48.672;9.376;2023-07-29T09:20:25;98041.75;;;22.45;93.77
13312;BME280;34033;48.672;9.376;2023-07-29T09:22:52;98050.28;;;22.45;93.12
13312;BME280;34033;48.672;9.376;2023-07-29T09:25:23;98043.66;;;22.49;93.69
13312;BME280;34033;48.672;9.376;2023-07-29T09:27:49;98037.44;;;22.59;92.57
13312;BME280;34033;48.672;9.376;2023-07-29T09:30:17;98041.97;;;22.75;92.80
13312;BME280;34033;48.672;9.376;2023-07-29T09:32:43;98028.06;;;23.01;91.64
13312;BME280;34033;48.672;9.376;2023-07-29T09:35:12;98035.72;;;23.18;87.15
13312;BME280;34033;48.672;9.376;2023-07-29T09:37:38;98025.81;;;23.28;85.93
13312;BME280;34033;48.672;9.376;2023-07-29T09:40:05;98020.13;;;23.43;85.38
13312;BME280;34033;48.672;9.376;2023-07-29T09:42:31;98017.16;;;23.47;84.45
13312;BME280;34033;48.672;9.376;2023-07-29T09:44:56;98016.69;;;23.63;83.58
13312;BME280;34033;48.672;9.376;2023-07-29T09:47:23;98014.56;;;23.87;83.29
13312;BME280;34033;48.672;9.376;2023-07-29T09:49:49;98009.88;;;24.14;82.52
13312;BME280;34033;48.672;9.376;2023-07-29T09:52:19;98010.28;;;24.36;82.81
13312;BME280;34033;48.672;9.376;2023-07-29T09:54:46;98023.84;;;24.26;79.80
13312;BME280;34033;48.672;9.376;2023-07-29T09:57:13;98034.22;;;24.24;79.30
13312;BME280;34033;48.672;9.376;2023-07-29T09:59:39;98034.84;;;24.04;76.82
13312;BME280;34033;48.672;9.376;2023-07-29T10:02:04;98014.56;;;24.17;78.06
13312;BME280;34033;48.672;9.376;2023-07-29T10:04:35;98013.03;;;24.30;78.43
13312;BME280;34033;48.672;9.376;2023-07-29T10:07:01;98005.53;;;24.33;79.25
13312;BME280;34033;48.672;9.376;2023-07-29T10:09:28;98007.91;;;24.34;78.22
13312;BME280;34033;48.672;9.376;2023-07-29T10:11:53;98006.06;;;24.31;77.01
13312;BME280;34033;48.672;9.376;2023-07-29T10:14:20;98017.38;;;24.26;77.48
13312;BME280;34033;48.672;9.376;2023-07-29T10:16:46;98008.88;;;24.17;77.63
13312;BME280;34033;48.672;9.376;2023-07-29T10:19:12;98010.66;;;24.29;78.85
13312;BME280;34033;48.672;9.376;2023-07-29T10:21:41;98000.59;;;24.48;79.10
13312;BME280;34033;48.672;9.376;2023-07-29T10:24:21;98004.63;;;24.56;77.05
13312;BME280;34033;48.672;9.376;2023-07-29T10:26:58;97997.31;;;24.70;74.91
13312;BME280;34033;48.672;9.376;2023-07-29T10:29:24;97992.94;;;24.89;74.44
13312;BME280;34033;48.672;9.376;2023-07-29T10:31:54;97988.09;;;24.95;73.22
13312;BME280;34033;48.672;9.376;2023-07-29T10:34:22;97986.81;;;24.96;73.36
13312;BME280;34033;48.672;9.376;2023-07-29T10:36:48;97994.94;;;25.03;72.65
13312;BME280;34033;48.672;9.376;2023-07-29T10:39:14;97978.88;;;25.26;72.87
13312;BME280;34033;48.672;9.376;2023-07-29T10:42:00;97992.44;;;25.31;69.40
13312;BME280;34033;48.672;9.376;2023-07-29T10:47:22;97988.47;;;25.03;68.12
13312;BME280;34033;48.672;9.376;2023-07-29T10:50:18;97989.31;;;25.09;69.01
13312;BME280;34033;48.672;9.376;2023-07-29T10:52:43;97980.44;;;25.27;69.69
13312;BME280;34033;48.672;9.376;2023-07-29T10:55:25;97984.38;;;25.50;68.35
13312;BME280;34033;48.672;9.376;2023-07-29T10:57:51;97971.56;;;25.65;67.65
13312;BME280;34033;48.672;9.376;2023-07-29T11:00:19;97978.06;;;25.92;64.83
13312;BME280;34033;48.672;9.376;2023-07-29T11:02:59;97965.94;;;25.77;59.16
13312;BME280;34033;48.672;9.376;2023-07-29T11:05:42;97966.97;;;25.99;62.46
13312;BME280;34033;48.672;9.376;2023-07-29T11:11:06;97979.09;;;25.89;56.08
13312;BME280;34033;48.672;9.376;2023-07-29T11:13:34;97984.53;;;25.87;55.93
13312;BME280;34033;48.672;9.376;2023-07-29T11:16:00;97988.72;;;25.86;55.17
13312;BME280;34033;48.672;9.376;2023-07-29T11:18:28;97981.41;;;25.85;56.16
13312;BME280;34033;48.672;9.376;2023-07-29T11:20:55;97998.53;;;25.79;56.27
13312;BME280;34033;48.672;9.376;2023-07-29T11:23:27;97983.13;;;25.77;56.80
13312;BME280;34033;48.672;9.376;2023-07-29T11:25:54;97993.41;;;25.89;56.68
13312;BME280;34033;48.672;9.376;2023-07-29T11:28:19;97985.78;;;26.06;56.51
13312;BME280;34033;48.672;9.376;2023-07-29T11:30:45;97989.09;;;25.99;56.21
13312;BME280;34033;48.672;9.376;2023-07-29T11:33:10;97996.84;;;25.93;54.17
13312;BME280;34033;48.672;9.376;2023-07-29T11:35:36;98003.59;;;25.69;54.19
13312;BME280;34033;48.672;9.376;2023-07-29T11:38:01;97982.88;;;25.74;54.32
13312;BME280;34033;48.672;9.376;2023-07-29T11:40:27;97992.88;;;25.85;55.23
13312;BME280;34033;48.672;9.376;2023-07-29T11:42:53;97989.75;;;25.88;54.67
13312;BME280;34033;48.672;9.376;2023-07-29T11:45:19;97986.53;;;26.01;55.08
13312;BME280;34033;48.672;9.376;2023-07-29T11:47:45;97986.38;;;26.15;55.23
13312;BME280;34033;48.672;9.376;2023-07-29T11:50:12;97976.78;;;26.19;54.09
13312;BME280;34033;48.672;9.376;2023-07-29T11:52:42;97983.16;;;26.28;54.41
13312;BME280;34033;48.672;9.376;2023-07-29T11:55:08;97981.66;;;26.38;54.06
13312;BME280;34033;48.672;9.376;2023-07-29T11:57:36;97965.78;;;26.80;54.24
13312;BME280;34033;48.672;9.376;2023-07-29T12:00:03;97948.03;;;27.18;52.83
13312;BME280;34033;48.672;9.376;2023-07-29T12:02:30;97961.13;;;27.30;50.74
13312;BME280;34033;48.672;9.376;2023-07-29T12:04:56;97958.97;;;27.79;50.71
13312;BME280;34033;48.672;9.376;2023-07-29T12:07:22;97966.31;;;28.08;48.74
13312;BME280;34033;48.672;9.376;2023-07-29T12:09:48;97955.28;;;27.56;50.09
13312;BME280;34033;48.672;9.376;2023-07-29T12:12:14;97964.56;;;27.34;49.20
13312;BME280;34033;48.672;9.376;2023-07-29T12:14:44;97960.56;;;27.15;50.35
13312;BME280;34033;48.672;9.376;2023-07-29T12:17:09;97950.59;;;27.05;50.33
13312;BME280;34033;48.672;9.376;2023-07-29T12:19:36;97949.41;;;26.86;50.54
13312;BME280;34033;48.672;9.376;2023-07-29T12:22:03;97946.06;;;26.87;50.91
13312;BME280;34033;48.672;9.376;2023-07-29T12:24:33;97932.69;;;27.27;52.01
13312;BME280;34033;48.672;9.376;2023-07-29T12:26:59;97953.19;;;27.62;48.13
13312;BME280;34033;48.672;9.376;2023-07-29T12:29:25;97937.38;;;27.24;49.01
13312;BME280;34033;48.672;9.376;2023-07-29T12:31:58;97944.97;;;27.33;48.90
13312;BME280;34033;48.672;9.376;2023-07-29T12:34:26;97946.38;;;27.54;49.21
13312;BME280;34033;48.672;9.376;2023-07-29T12:36:52;97937.00;;;27.59;48.85
13312;BME280;34033;48.672;9.376;2023-07-29T12:39:25;97942.38;;;27.35;48.75
13312;BME280;34033;48.672;9.376;2023-07-29T12:41:53;97941.56;;;27.23;47.50
13312;BME280;34033;48.672;9.376;2023-07-29T12:44:19;97943.38;;;27.21;48.58
13312;BME280;34033;48.672;9.376;2023-07-29T12:46:44;97950.22;;;27.34;47.68
13312;BME280;34033;48.672;9.376;2023-07-29T12:49:10;97948.56;;;27.17;46.97
13312;BME280;34033;48.672;9.376;2023-07-29T12:51:36;97976.03;;;27.34;47.25
13312;BME280;34033;48.672;9.376;2023-07-29T12:54:03;97960.94;;;27.45;45.57
13312;BME280;34033;48.672;9.376;2023-07-29T12:56:29;97950.13;;;27.12;46.01
13312;BME280;34033;48.672;9.376;2023-07-29T12:58:56;97959.31;;;27.27;47.22
13312;BME280;34033;48.672;9.376;2023-07-29T13:01:22;97949.88;;;27.21;47.10
13312;BME280;34033;48.672;9.376;2023-07-29T13:03:48;97956.81;;;26.98;47.39
13312;BME280;34033;48.672;9.376;2023-07-29T13:06:13;97970.00;;;26.84;46.79
13312;BME280;34033;48.672;9.376;2023-07-29T13:08:39;97972.78;;;26.68;47.17
13312;BME280;34033;48.672;9.376;2023-07-29T13:11:04;97956.88;;;26.67;47.61